• Join FlightAware (Why Join?)
  • Login
  • US Flag 
Rudolph Flight #1: Arrived! 
05:34AM EST


 

Airport Tracker/Info


-or-


 

Live Flight TrackerFlight Track Log ✈ ASQ4283 ✈ 03-Aug-2014 ✈ KDFW - KIAH

Flight Track Log - Related Links

Times and Time Zones

All times are in EDT time to prevent confusion due to time zone crossing. See the ASQ4283 flight status page for this flight to view local times or setup timezone preferences in your user account.

Time Position Orientation Groundspeed Altitude Reporting Facility
EDT Latitude Longitude Course Direction KTS MPH feet Rate Location/Type
10:13AM 32.9000 -97.0333 16° North 145 167 1,000  Level Dallas / Fort Worth TRACON
10:14AM 32.9500 -97.0167 16° North 173 199 3,000 1,980 Climbing Dallas / Fort Worth TRACON
10:15AM 33.0000 -97.0000 16° North 225 259 4,800 2,040 Climbing Dallas / Fort Worth TRACON
10:16AM 33.0167 -96.9333 73° East 253 291 6,900 2,100 Climbing Dallas / Fort Worth TRACON
10:17AM 32.9956 -96.8644 110° East 261 300 8,900 1,800 Climbing Fort Worth Center
10:18AM 32.9397 -96.7928 133° Southeast 289 333 10,400 1,080 Climbing Fort Worth Center
10:19AM 32.8458 -96.7908 179° South 342 394 11,200 1,020 Climbing Fort Worth Center
10:20AM 32.7375 -96.7939 181° South 358 412 12,600 1,200 Climbing Fort Worth Center
10:21AM 32.6344 -96.7989 182° South 367 422 13,800 1,140 Climbing Fort Worth Center
10:22AM 32.5214 -96.8047 182° South 374 430 15,000 960 Climbing Fort Worth Center
10:23AM 32.4144 -96.8097 182° South 382 440 15,900 960 Climbing Fort Worth Center
10:24AM 32.2969 -96.8142 182° South 392 451 17,100 840 Climbing Fort Worth Center
10:25AM 32.2047 -96.7864 166° South 397 457 17,700 600 Climbing Fort Worth Center
10:26AM 32.0994 -96.7453 162° South 397 457 18,400 660 Climbing Fort Worth Center
10:27AM 31.9706 -96.6967 162° South 406 467 19,100 660 Climbing Fort Worth Center
10:28AM 31.8686 -96.6575 162° South 416 479 19,800 600 Climbing Fort Worth Center
10:29AM 31.7586 -96.6117 160° South 417 480 20,400 480 Climbing Fort Worth Center
10:30AM 31.6450 -96.5667 161° South 426 490 20,900 480 Climbing Fort Worth Center
10:31AM 31.5086 -96.5069 160° South 430 495 21,500 480 Climbing Fort Worth Center
10:32AM 31.3983 -96.4406 153° Southeast 437 503 22,000 420 Climbing Fort Worth Center
10:33AM 31.3292 -96.3978 152° Southeast 444 511 22,300 480 Climbing Houston Center
10:34AM 31.1975 -96.3175 152° Southeast 445 512 22,900 300 Climbing Houston Center
10:35AM 31.0853 -96.2486 152° Southeast 447 514 23,000 -240 Climbing Houston Center
10:36AM 30.9725 -96.1778 152° Southeast 458 527 22,500 -1,500 Descending Houston Center
10:37AM 30.8617 -96.1067 151° Southeast 457 526 19,900 -2,700 Descending Houston Center
10:38AM 30.7606 -96.0419 151° Southeast 438 504 17,000 -3,120 Descending Houston Center
10:39AM 30.6981 -96.0019 151° Southeast 410 472 15,300 -3,240 Descending Houston Center
10:39AM 30.6450 -95.9683 151° Southeast 414 476 13,700 -2,640 Descending Houston Center
10:40AM 30.6139 -95.9511 155° Southeast 403 464 12,900 -1,980 Descending Houston Center
10:40AM 30.5514 -95.9089 150° Southeast 390 449 11,700 -1,620 Descending Houston Center
10:41AM 30.5183 -95.8894 153° Southeast 340 391 11,300 -1,260 Descending Houston Center
10:41AM 30.4672 -95.8683 160° South 336 387 10,400 -1,560 Descending Houston Center
10:41AM 30.4433 -95.8714 186° South 316 364 9,900 -1,920 Descending Houston Center
10:42AM 30.3825 -95.8764 184° South 306 352 8,500 -1,800 Descending Houston Center
10:42AM 30.3550 -95.8694 168° South 307 353 8,100 -540 Descending Houston Center
10:43AM 30.3008 -95.8547 167° South 306 352 8,000 -120 Descending Houston Center
10:43AM 30.2758 -95.8497 170° South 297 342 8,000 -540 Level Houston Center
10:44AM 30.2217 -95.8369 168° South 294 338 7,500 -840 Descending Houston Center
10:45AM 30.1942 -95.8303 168° South 286 329 7,200 -540 Descending Houston Center
10:45AM 30.1442 -95.8183 168° South 286 329 7,000 -420 Descending Houston Center
10:46AM 30.1172 -95.8125 169° South 282 325 6,800 -1,560 Descending Houston Center
10:46AM 30.0672 -95.7692 143° Southeast 272 313 5,400 -960 Descending Houston Center
10:47AM 30.0161 -95.7094 135° Southeast 264 304 5,000 -360 Descending Houston Center
10:48AM 30.0014 -95.6908 132° Southeast 254 292 5,000 -240 Level Houston Center
10:48AM 29.9903 -95.6417 105° East 242 278 4,800 -420 Descending Houston Center
10:49AM 29.9908 -95.6197 88° East 226 260 4,600 -1,200 Descending Houston Center
10:49AM 29.9928 -95.5686 87° East 228 262 3,600 -1,380 Descending Houston Center
10:50AM 29.9919 -95.5378 92° East 231 266 3,100 -1,260 Descending Houston Center
10:51AM 29.9925 -95.4750 89° East 216 249 2,100 -960 Descending Houston Center
10:52AM 29.9933 -95.4358 89° East 204 235 1,500 -900 Descending Houston Center
10:52AM 29.9919 -95.4219 97° East 134 154 1,200 -720 Descending Houston Center
10:53AM 29.9933 -95.3922 87° East 160 184 800 -720 Descending Houston Center
10:53AM 29.9919 -95.3761 96° East 138 159 500 -540 Descending Houston Center
10:54AM 29.9936 -95.3408 87° East 151 174 300 -240 Descending Houston Center
10:56AM 29.9833 -95.3333 93° East  Level FlightAware Approximate